Time;durP1;ratioP1;P1;durP2;ratioP2;P2;SDS_P1;SDS_P2;PMS_P1;PMS_P2;Temp;Humidity;BMP_temperature;BMP_pressure;BME280_temperature;BME280_humidity;BME280_pressure;Samples;Min_cycle;Max_cycle;Signal;HPM_P1;HPM_P2
2022/04/02 00:00:28;;;;;;;;;;;;;;;11.46;38.45;99865.97;4894165;28;128870;-63
2022/04/02 00:02:55;;;;;;;;;;;;;;;11.44;38.17;99863.56;4892558;28;98725;-63
2022/04/02 00:05:21;;;;;;;;;;;;;;;11.42;38.62;99864.94;4885442;28;115486;-63
2022/04/02 00:07:47;;;;;;;;;;;;;;;11.41;37.97;99868.72;4892084;28;123666;-63
2022/04/02 00:10:13;;;;;;;;;;;;;;;11.39;38.41;99873.59;4892356;28;127960;-63
2022/04/02 00:12:39;;;;;;;;;;;;;;;11.38;38.37;99866.59;4879010;28;127701;-65
2022/04/02 00:15:05;;;;;;;;;;;;;;;11.37;38.32;99873.09;4877961;28;98247;-63
2022/04/02 00:17:33;;;;;;;;;;;;;;;11.34;38.24;99877.16;4888660;28;98109;-64
2022/04/02 00:19:59;;;;;;;;;;;;;;;11.32;38.00;99876.66;4889557;28;99328;-64
2022/04/02 00:22:25;;;;;;;;;;;;;;;11.30;37.96;99871.53;4892791;28;125882;-63
2022/04/02 00:24:51;;;;;;;;;;;;;;;11.30;38.08;99881.53;4895673;28;122566;-64
2022/04/02 00:27:17;;;;;;;;;;;;;;;11.28;38.30;99879.13;4893486;28;98468;-63
2022/04/02 00:29:43;;;;;;;;;;;;;;;11.27;38.57;99882.88;4892208;28;126700;-64
2022/04/02 00:32:09;;;;;;;;;;;;;;;11.26;38.34;99889.38;4877080;28;124158;-63
2022/04/02 00:34:35;;;;;;;;;;;;;;;11.24;38.65;99891.56;4875927;28;120671;-63
2022/04/02 00:37:01;;;;;;;;;;;;;;;11.25;37.98;99900.47;4879042;28;98058;-65
2022/04/02 00:39:27;;;;;;;;;;;;;;;11.23;38.66;99894.53;4876212;28;126013;-64
2022/04/02 00:41:53;;;;;;;;;;;;;;;11.21;38.27;99889.44;4877488;28;98996;-64
2022/04/02 00:44:20;;;;;;;;;;;;;;;11.20;38.65;99890.53;4876942;28;122489;-65
2022/04/02 00:46:47;;;;;;;;;;;;;;;11.20;38.71;99895.09;4878098;28;98807;-64
2022/04/02 00:49:13;;;;;;;;;;;;;;;11.19;38.04;99894.31;4875442;28;99055;-64
2022/04/02 00:51:43;;;;;;;;;;;;;;;11.19;38.67;99899.69;4875560;28;100892;-63
2022/04/02 00:54:10;;;;;;;;;;;;;;;11.19;38.70;99898.91;4876578;28;98212;-64
2022/04/02 00:56:40;;;;;;;;;;;;;;;11.17;37.83;99904.59;4876716;28;97982;-63
2022/04/02 00:59:06;;;;;;;;;;;;;;;11.17;38.29;99901.09;4877156;28;128014;-63
2022/04/02 01:01:32;;;;;;;;;;;;;;;11.16;38.34;99908.38;4884688;28;100704;-63
2022/04/02 01:03:59;;;;;;;;;;;;;;;11.15;38.63;99905.97;4876815;28;128094;-63
2022/04/02 01:06:27;;;;;;;;;;;;;;;11.13;38.44;99910.84;4877875;28;99093;-63
2022/04/02 01:08:53;;;;;;;;;;;;;;;11.12;38.69;99910.03;4878149;28;98727;-63
2022/04/02 01:11:19;;;;;;;;;;;;;;;11.11;38.31;99907.63;4876945;28;99846;-64
2022/04/02 01:13:45;;;;;;;;;;;;;;;11.10;38.50;99904.13;4874396;28;126541;-64
2022/04/02 01:16:11;;;;;;;;;;;;;;;11.09;38.74;99916.00;4874767;28;122763;-63
2022/04/02 01:18:37;;;;;;;;;;;;;;;11.09;38.67;99915.19;4876120;28;110774;-64
2022/04/02 01:21:03;;;;;;;;;;;;;;;11.06;38.59;99909.28;4877008;28;127325;-63
2022/04/02 01:23:29;;;;;;;;;;;;;;;11.05;38.31;99915.75;4869373;28;128200;-63
2022/04/02 01:25:57;;;;;;;;;;;;;;;11.03;38.78;99922.50;4877656;28;99288;-64
2022/04/02 01:28:23;;;;;;;;;;;;;;;11.02;38.50;99913.63;4877904;28;98885;-64
2022/04/02 01:30:49;;;;;;;;;;;;;;;11.02;38.19;99915.53;4877013;28;99140;-62
2022/04/02 01:33:15;;;;;;;;;;;;;;;11.00;38.59;99918.50;4878018;28;125779;-64
2022/04/02 01:35:41;;;;;;;;;;;;;;;10.99;38.08;99914.19;4878407;28;118989;-63
2022/04/02 01:38:20;;;;;;;;;;;;;;;10.96;38.15;99916.63;5014856;27;98030;-62
2022/04/02 01:40:46;;;;;;;;;;;;;;;10.93;38.45;99922.63;4998820;27;99418;-62
2022/04/02 01:43:12;;;;;;;;;;;;;;;10.90;38.04;99925.88;4994155;27;128201;-63
2022/04/02 01:45:38;;;;;;;;;;;;;;;10.86;38.28;99919.44;4990740;27;128852;-63
2022/04/02 01:48:04;;;;;;;;;;;;;;;10.82;38.37;99924.59;4994483;27;98389;-64
2022/04/02 01:50:30;;;;;;;;;;;;;;;10.78;38.49;99923.53;4993289;27;102881;-62
2022/04/02 01:52:56;;;;;;;;;;;;;;;10.75;38.44;99935.69;4998164;27;126228;-62
2022/04/02 01:55:22;;;;;;;;;;;;;;;10.73;38.28;99937.06;4994196;27;98414;-63
2022/04/02 01:57:48;;;;;;;;;;;;;;;10.69;38.62;99930.59;4993855;27;98168;-63
2022/04/02 02:00:14;;;;;;;;;;;;;;;10.67;38.64;99933.59;4994753;27;98003;-64
2022/04/02 02:02:40;;;;;;;;;;;;;;;10.65;38.25;99937.63;4994141;27;98122;-62
2022/04/02 02:05:06;;;;;;;;;;;;;;;10.63;38.68;99937.94;4994428;27;99302;-62
2022/04/02 02:07:32;;;;;;;;;;;;;;;10.61;38.35;99939.28;4991694;27;125413;-62
2022/04/02 02:09:58;;;;;;;;;;;;;;;10.59;38.62;99936.06;4993277;27;110767;-62
2022/04/02 02:12:24;;;;;;;;;;;;;;;10.55;38.57;99933.94;4994327;27;98574;-62
2022/04/02 02:14:50;;;;;;;;;;;;;;;10.54;38.35;99936.91;4994257;27;98203;-63
2022/04/02 02:17:19;;;;;;;;;;;;;;;10.52;38.41;99933.69;4992278;27;128070;-62
2022/04/02 02:19:45;;;;;;;;;;;;;;;10.50;38.46;99930.47;4994283;27;97995;-62
2022/04/02 02:22:11;;;;;;;;;;;;;;;10.48;38.60;99932.63;4993015;27;127043;-62
2022/04/02 02:24:37;;;;;;;;;;;;;;;10.46;38.81;99932.91;4991475;27;98486;-64
2022/04/02 02:27:03;;;;;;;;;;;;;;;10.44;38.05;99940.47;4992777;27;98457;-62
2022/04/02 02:29:29;;;;;;;;;;;;;;;10.41;38.88;99932.94;4994494;27;97923;-64
2022/04/02 02:31:55;;;;;;;;;;;;;;;10.40;38.26;99935.91;4992657;27;124680;-65
2022/04/02 02:37:06;;;;;;;;;;;;;;;10.35;38.00;99933.25;4992112;27;97921;-64
2022/04/02 02:39:32;;;;;;;;;;;;;;;10.32;38.84;99932.72;4993307;27;108648;-65
2022/04/02 02:41:58;;;;;;;;;;;;;;;10.31;38.78;99936.50;4992506;27;128592;-63
2022/04/02 02:44:24;;;;;;;;;;;;;;;10.31;38.85;99938.41;4973928;27;104236;-64
2022/04/02 02:46:50;;;;;;;;;;;;;;;10.29;37.93;99940.56;4991826;27;127889;-63
2022/04/02 02:49:16;;;;;;;;;;;;;;;10.27;38.09;99935.44;4982165;27;97877;-64
2022/04/02 02:51:42;;;;;;;;;;;;;;;10.28;38.37;99939.75;4982732;27;125085;-63
2022/04/02 02:54:07;;;;;;;;;;;;;;;10.27;38.32;99942.72;4978242;28;118014;-63
2022/04/02 02:56:33;;;;;;;;;;;;;;;10.27;39.01;99948.13;4978137;27;126539;-64
2022/04/02 02:58:59;;;;;;;;;;;;;;;10.27;38.66;99942.72;4981177;28;98400;-64
2022/04/02 03:01:25;;;;;;;;;;;;;;;10.26;38.82;99947.31;4978633;28;99121;-63
2022/04/02 03:03:51;;;;;;;;;;;;;;;10.25;38.98;99944.88;4979233;28;126989;-64
2022/04/02 03:06:17;;;;;;;;;;;;;;;10.25;38.81;99952.97;4978036;27;127698;-63
2022/04/02 03:08:43;;;;;;;;;;;;;;;10.23;38.95;99952.41;4975872;28;109470;-64
2022/04/02 03:11:09;;;;;;;;;;;;;;;10.25;38.61;99947.56;4976139;27;129100;-64
2022/04/02 03:13:37;;;;;;;;;;;;;;;10.23;38.73;99961.31;4977968;28;98349;-63
2022/04/02 03:16:04;;;;;;;;;;;;;;;10.22;38.36;99964.28;4978154;27;99749;-63
2022/04/02 03:18:30;;;;;;;;;;;;;;;10.21;38.78;99966.16;4980362;27;103127;-63
2022/04/02 03:20:56;;;;;;;;;;;;;;;10.20;38.59;99961.84;4975686;27;127951;-64
2022/04/02 03:23:22;;;;;;;;;;;;;;;10.19;38.48;99957.56;4983895;28;127526;-64
2022/04/02 03:25:48;;;;;;;;;;;;;;;10.19;38.29;99971.03;4978245;28;119933;-64
2022/04/02 03:28:14;;;;;;;;;;;;;;;10.18;38.73;99965.88;4980229;28;108620;-63
2022/04/02 03:30:40;;;;;;;;;;;;;;;10.17;38.34;99966.97;4979197;27;98393;-63
2022/04/02 03:33:06;;;;;;;;;;;;;;;10.17;39.15;99966.97;4978485;28;127106;-64
2022/04/02 03:35:31;;;;;;;;;;;;;;;10.16;38.78;99965.38;4978621;27;99395;-64
2022/04/02 03:37:57;;;;;;;;;;;;;;;10.15;38.30;99975.34;4978190;28;110948;-62
2022/04/02 03:40:26;;;;;;;;;;;;;;;10.14;39.01;99976.44;4978113;27;126298;-63
2022/04/02 03:42:53;;;;;;;;;;;;;;;10.14;38.95;99976.44;4979457;27;99444;-64
2022/04/02 03:45:19;;;;;;;;;;;;;;;10.14;39.27;99978.28;4979551;27;98020;-63
2022/04/02 03:47:45;;;;;;;;;;;;;;;10.14;38.89;99983.69;4979590;27;97733;-63
2022/04/02 03:50:11;;;;;;;;;;;;;;;10.13;38.86;99976.69;4977365;27;117552;-63
2022/04/02 03:52:37;;;;;;;;;;;;;;;10.11;38.56;99979.69;4979966;27;98802;-65
2022/04/02 03:55:05;;;;;;;;;;;;;;;10.11;39.17;99978.88;4978669;28;98657;-65
2022/04/02 03:57:31;;;;;;;;;;;;;;;10.11;39.03;99981.56;4979325;27;97927;-63
2022/04/02 03:59:57;;;;;;;;;;;;;;;10.09;38.64;99988.00;4977626;27;98582;-63
2022/04/02 04:02:23;;;;;;;;;;;;;;;10.08;38.53;99983.72;4978077;28;109203;-63
2022/04/02 04:04:49;;;;;;;;;;;;;;;10.06;38.83;99991.28;4978192;27;97927;-63
2022/04/02 04:07:15;;;;;;;;;;;;;;;10.05;39.12;99988.84;4971734;28;98034;-63
2022/04/02 04:09:41;;;;;;;;;;;;;;;10.04;39.17;99993.44;4976517;28;107593;-63
2022/04/02 04:12:08;;;;;;;;;;;;;;;10.03;39.39;99996.41;4978165;28;98534;-63
2022/04/02 04:14:34;;;;;;;;;;;;;;;10.03;39.20;100001.78;4977159;27;121028;-64
2022/04/02 04:17:00;;;;;;;;;;;;;;;10.02;39.30;100000.16;4977759;27;111023;-64
2022/04/02 04:19:26;;;;;;;;;;;;;;;10.01;39.22;99996.66;4979049;28;99443;-63
2022/04/02 04:21:53;;;;;;;;;;;;;;;10.00;39.58;100005.81;4977419;28;111760;-64
2022/04/02 04:24:19;;;;;;;;;;;;;;;10.00;39.17;99999.63;4978594;27;98011;-63
2022/04/02 04:26:45;;;;;;;;;;;;;;;9.98;39.20;99999.94;4976453;28;110037;-65
2022/04/02 04:29:11;;;;;;;;;;;;;;;9.97;39.36;100000.97;4977504;28;127997;-64
2022/04/02 04:31:37;;;;;;;;;;;;;;;9.97;38.98;100013.66;4976470;28;127761;-63
2022/04/02 04:34:03;;;;;;;;;;;;;;;9.96;39.42;100007.47;4975293;28;110881;-64
2022/04/02 04:36:29;;;;;;;;;;;;;;;9.96;39.65;100012.03;4978382;28;102229;-64
2022/04/02 04:38:55;;;;;;;;;;;;;;;9.95;39.46;100008.53;4978761;27;98559;-64
2022/04/02 04:41:21;;;;;;;;;;;;;;;9.94;39.72;100011.50;4975938;27;107283;-64
2022/04/02 04:43:49;;;;;;;;;;;;;;;9.93;39.23;100016.06;4978324;28;98584;-65
2022/04/02 04:46:16;;;;;;;;;;;;;;;9.94;39.10;100015.00;4978684;27;98493;-63
2022/04/02 04:48:42;;;;;;;;;;;;;;;9.94;39.71;100011.50;4977523;27;115753;-64
2022/04/02 04:51:08;;;;;;;;;;;;;;;9.94;39.93;100020.41;4980361;27;125007;-63
2022/04/02 04:53:34;;;;;;;;;;;;;;;9.95;39.09;100019.31;4979367;27;125856;-63
2022/04/02 04:56:00;;;;;;;;;;;;;;;9.97;39.66;100027.09;4976199;28;104061;-63
2022/04/02 04:58:27;;;;;;;;;;;;;;;9.99;39.51;100022.28;4977489;28;111237;-62
2022/04/02 05:00:55;;;;;;;;;;;;;;;10.00;39.21;100027.38;4976572;28;99180;-63
2022/04/02 05:03:22;;;;;;;;;;;;;;;10.04;39.36;100033.81;4978391;27;98514;-63
2022/04/02 05:05:48;;;;;;;;;;;;;;;10.07;39.19;100035.16;4977739;28;100821;-64
2022/04/02 05:08:14;;;;;;;;;;;;;;;10.10;39.67;100031.94;4974875;28;98481;-63
2022/04/02 05:10:42;;;;;;;;;;;;;;;10.14;39.14;100035.69;4976322;28;127456;-65
2022/04/02 05:13:09;;;;;;;;;;;;;;;10.18;39.31;100039.44;4977879;27;98622;-64
2022/04/02 05:15:40;;;;;;;;;;;;;;;10.24;39.62;100038.34;4976095;28;98951;-64
2022/04/02 05:18:06;;;;;;;;;;;;;;;10.35;39.31;100039.13;4978143;27;98639;-64
2022/04/02 05:20:31;;;;;;;;;;;;;;;10.47;39.49;100045.00;4976853;28;127320;-63
2022/04/02 05:22:57;;;;;;;;;;;;;;;10.59;39.59;100047.38;4976992;28;127756;-63
2022/04/02 05:25:24;;;;;;;;;;;;;;;10.66;38.91;100052.47;4977177;28;109857;-63
2022/04/02 05:27:49;;;;;;;;;;;;;;;10.76;39.44;100044.31;4977731;28;98276;-64
2022/04/02 05:30:17;;;;;;;;;;;;;;;10.85;39.10;100052.66;4973702;27;128409;-63
2022/04/02 05:32:43;;;;;;;;;;;;;;;10.92;39.18;100055.81;4975497;28;98478;-63
2022/04/02 05:35:08;;;;;;;;;;;;;;;10.99;38.86;100056.31;4978103;27;101816;-63
2022/04/02 05:37:36;;;;;;;;;;;;;;;11.06;39.43;100054.13;4975743;28;127507;-63
2022/04/02 05:40:02;;;;;;;;;;;;;;;11.13;39.16;100053.81;4974762;28;109885;-63
2022/04/02 05:42:28;;;;;;;;;;;;;;;11.19;39.03;100069.66;4977180;27;98381;-64
2022/04/02 05:44:56;;;;;;;;;;;;;;;11.25;39.53;100067.75;4975878;28;112543;-63
2022/04/02 05:47:22;;;;;;;;;;;;;;;11.30;38.75;100063.09;4976910;28;98389;-63
2022/04/02 05:49:48;;;;;;;;;;;;;;;11.39;38.76;100073.28;4970302;28;128343;-64
2022/04/02 05:52:14;;;;;;;;;;;;;;;11.45;39.04;100064.88;4977091;27;98125;-63
2022/04/02 05:54:41;;;;;;;;;;;;;;;11.53;39.38;100061.56;4977336;27;113196;-63
2022/04/02 05:57:07;;;;;;;;;;;;;;;11.62;39.12;100067.16;4974368;28;99156;-63
2022/04/02 05:59:33;;;;;;;;;;;;;;;11.70;39.03;100063.84;4973677;28;120716;-63
2022/04/02 06:01:59;;;;;;;;;;;;;;;11.78;38.60;100073.22;4976634;28;119353;-63
2022/04/02 06:04:25;;;;;;;;;;;;;;;11.84;38.88;100074.84;4976482;27;98078;-63
2022/04/02 06:06:51;;;;;;;;;;;;;;;11.92;38.74;100079.63;4975774;28;99248;-63
2022/04/02 06:09:17;;;;;;;;;;;;;;;12.01;38.53;100079.78;4975716;28;128150;-63
2022/04/02 06:11:45;;;;;;;;;;;;;;;12.11;38.66;100081.59;4975517;28;126784;-63
2022/04/02 06:14:13;;;;;;;;;;;;;;;12.19;38.78;100083.66;4977413;28;98295;-63
2022/04/02 06:16:39;;;;;;;;;;;;;;;12.28;38.64;100081.94;4974158;28;98531;-64
2022/04/02 06:19:05;;;;;;;;;;;;;;;12.37;38.83;100091.00;4957144;27;129974;-63
2022/04/02 06:21:31;;;;;;;;;;;;;;;12.46;38.49;100088.50;4973283;28;127268;-64
2022/04/02 06:23:57;;;;;;;;;;;;;;;12.54;38.60;100090.56;4978598;27;109555;-63
2022/04/02 06:26:22;;;;;;;;;;;;;;;12.65;38.82;100092.03;4978769;27;127960;-64
2022/04/02 06:28:48;;;;;;;;;;;;;;;12.75;38.42;100083.00;4975792;28;128307;-63
2022/04/02 06:31:14;;;;;;;;;;;;;;;12.88;38.59;100089.56;4979509;27;126339;-64
2022/04/02 06:33:40;;;;;;;;;;;;;;;12.99;38.58;100091.84;4979292;28;111678;-63
2022/04/02 06:36:07;;;;;;;;;;;;;;;13.11;38.70;100088.69;4976691;27;127725;-63
2022/04/02 06:38:34;;;;;;;;;;;;;;;13.21;38.50;100088.56;4980058;27;98569;-63
2022/04/02 06:41:00;;;;;;;;;;;;;;;13.32;38.40;100086.50;4977442;28;98420;-64
2022/04/02 06:43:26;;;;;;;;;;;;;;;13.40;38.55;100091.28;4978463;28;98272;-64
2022/04/02 06:45:52;;;;;;;;;;;;;;;13.48;38.61;100087.91;4977725;28;128386;-63
2022/04/02 06:48:18;;;;;;;;;;;;;;;13.59;38.38;100093.13;4979337;28;123549;-63
2022/04/02 06:50:44;;;;;;;;;;;;;;;13.66;38.42;100091.66;4977060;27;98272;-64
2022/04/02 06:53:10;;;;;;;;;;;;;;;13.71;38.51;100099.69;4987688;27;97933;-64
2022/04/02 06:55:36;;;;;;;;;;;;;;;13.78;38.64;100096.59;4976637;28;119051;-63
2022/04/02 06:58:02;;;;;;;;;;;;;;;13.87;38.42;100097.56;4977300;28;109375;-63
2022/04/02 07:00:28;;;;;;;;;;;;;;;13.95;38.60;100090.63;4978539;27;108471;-63
2022/04/02 07:02:54;;;;;;;;;;;;;;;14.06;38.56;100096.66;4978742;28;111350;-63
2022/04/02 07:05:20;;;;;;;;;;;;;;;14.18;38.32;100084.22;4977321;27;98644;-64
2022/04/02 07:07:46;;;;;;;;;;;;;;;14.28;38.26;100094.06;4978260;28;112523;-64
2022/04/02 07:10:13;;;;;;;;;;;;;;;14.39;38.23;100092.78;4976485;27;98351;-63
2022/04/02 07:12:39;;;;;;;;;;;;;;;14.53;38.51;100086.56;4979820;28;98195;-64
2022/04/02 07:15:06;;;;;;;;;;;;;;;14.69;38.06;100099.50;4975321;28;128135;-64
2022/04/02 07:17:32;;;;;;;;;;;;;;;14.86;38.43;100087.25;4976992;28;99135;-64
2022/04/02 07:19:59;;;;;;;;;;;;;;;15.02;38.15;100095.84;4978147;28;126433;-63
2022/04/02 07:22:25;;;;;;;;;;;;;;;15.14;38.31;100094.19;4979255;28;97839;-63
2022/04/02 07:24:52;;;;;;;;;;;;;;;15.29;38.24;100100.38;4978466;27;99374;-64
2022/04/02 07:27:21;;;;;;;;;;;;;;;15.44;37.89;100108.16;4978630;27;98879;-63
2022/04/02 07:29:48;;;;;;;;;;;;;;;15.60;37.79;100095.00;4975722;28;126634;-63
2022/04/02 07:32:14;;;;;;;;;;;;;;;15.78;38.01;100095.97;4976269;28;110076;-64
2022/04/02 07:34:40;;;;;;;;;;;;;;;15.94;38.00;100094.44;4980631;27;122190;-63
2022/04/02 07:37:24;;;;;;;;;;;;;;;16.11;37.72;100099.16;4978952;27;98383;-64
2022/04/02 07:40:09;;;;;;;;;;;;;;;16.36;37.46;100103.13;4978333;28;99290;-63
2022/04/02 07:42:56;;;;;;;;;;;;;;;16.63;37.45;100108.34;4975188;28;112444;-64
2022/04/02 07:45:35;;;;;;;;;;;;;;;16.81;37.28;100119.28;4977773;27;98921;-64
2022/04/02 07:48:03;;;;;;;;;;;;;;;16.91;37.37;100110.81;4976224;28;126034;-64
2022/04/02 07:50:29;;;;;;;;;;;;;;;16.93;37.51;100117.53;4975668;27;124156;-64
2022/04/02 07:52:55;;;;;;;;;;;;;;;17.00;37.56;100119.78;4981508;27;98194;-63
2022/04/02 07:55:22;;;;;;;;;;;;;;;17.09;37.32;100114.34;4975247;28;128479;-64
2022/04/02 07:57:50;;;;;;;;;;;;;;;17.16;37.53;100110.03;4978014;27;117753;-64
2022/04/02 08:00:19;;;;;;;;;;;;;;;17.20;37.59;100115.63;4977682;27;120214;-63
2022/04/02 08:02:46;;;;;;;;;;;;;;;17.26;37.48;100116.31;4978934;27;98231;-63
2022/04/02 08:05:16;;;;;;;;;;;;;;;17.48;37.25;100120.78;4975718;28;98409;-63
2022/04/02 08:07:49;;;;;;;;;;;;;;;17.63;37.17;100115.63;4975595;28;126580;-64
2022/04/02 08:10:16;;;;;;;;;;;;;;;17.88;37.04;100115.91;4977856;27;98442;-64
2022/04/02 08:12:42;;;;;;;;;;;;;;;18.10;36.83;100117.63;4979232;27;98267;-64
2022/04/02 08:15:14;;;;;;;;;;;;;;;18.55;36.58;100123.41;4978235;27;120403;-63
2022/04/02 08:17:40;;;;;;;;;;;;;;;18.95;36.35;100119.50;4978142;27;98288;-63
2022/04/02 08:20:07;;;;;;;;;;;;;;;19.26;36.27;100124.59;4976236;27;127897;-64
2022/04/02 08:22:33;;;;;;;;;;;;;;;19.80;35.75;100122.66;4977270;27;108354;-63
2022/04/02 08:24:59;;;;;;;;;;;;;;;20.25;35.57;100119.13;4976924;28;127760;-63
2022/04/02 08:27:38;;;;;;;;;;;;;;;20.82;35.17;100129.19;4978094;28;99130;-65
2022/04/02 08:30:07;;;;;;;;;;;;;;;21.33;34.99;100118.59;4978178;27;98126;-63
2022/04/02 08:32:54;;;;;;;;;;;;;;;22.13;34.57;100119.63;4978171;28;98090;-64
2022/04/02 08:35:24;;;;;;;;;;;;;;;22.75;34.49;100128.16;4979336;27;98578;-64
2022/04/02 08:38:03;;;;;;;;;;;;;;;23.59;33.76;100129.59;4976341;28;98929;-63
2022/04/02 08:40:48;;;;;;;;;;;;;;;24.31;33.63;100131.69;4975901;27;98751;-64
2022/04/02 08:43:32;;;;;;;;;;;;;;;25.05;33.30;100140.34;4978503;28;98023;-64
2022/04/02 08:46:29;;;;;;;;;;;;;;;25.54;33.11;100133.88;4976175;27;98470;-64
2022/04/02 08:48:59;;;;;;;;;;;;;;;26.00;32.80;100150.19;4969409;28;120739;-64
2022/04/02 08:51:42;;;;;;;;;;;;;;;26.64;32.52;100152.75;4978338;27;98166;-61
2022/04/02 08:54:28;;;;;;;;;;;;;;;27.23;32.31;100150.78;4978111;27;98477;-64
2022/04/02 08:56:57;;;;;;;;;;;;;;;27.75;31.92;100143.13;4974105;28;128366;-63
2022/04/02 08:59:39;;;;;;;;;;;;;;;28.24;31.48;100140.81;4977936;27;98970;-64
2022/04/02 09:02:34;;;;;;;;;;;;;;;28.85;31.03;100149.91;4974773;27;105190;-63
2022/04/02 09:05:08;;;;;;;;;;;;;;;29.15;31.21;100152.22;4976108;28;98033;-64
2022/04/02 09:07:56;;;;;;;;;;;;;;;29.70;30.36;100159.97;4976957;28;98415;-63
2022/04/02 09:10:34;;;;;;;;;;;;;;;30.04;30.09;100157.38;4974260;28;123195;-61
2022/04/02 09:13:36;;;;;;;;;;;;;;;30.07;30.32;100155.78;4977621;28;98193;-63
2022/04/02 09:16:04;;;;;;;;;;;;;;;30.36;29.71;100156.38;4977307;27;98190;-63
2022/04/02 09:18:49;;;;;;;;;;;;;;;30.43;29.80;100153.56;4975028;28;98548;-63
2022/04/02 09:21:44;;;;;;;;;;;;;;;30.34;29.89;100150.47;4975366;27;98725;-63
2022/04/02 09:24:39;;;;;;;;;;;;;;;30.04;30.28;100151.81;4952331;28;99344;-63
2022/04/02 09:27:35;;;;;;;;;;;;;;;29.91;29.65;100147.97;4976626;28;98421;-63
2022/04/02 09:30:32;;;;;;;;;;;;;;;30.45;29.20;100153.13;4975310;27;98446;-63
2022/04/02 09:33:01;;;;;;;;;;;;;;;31.34;28.32;100154.28;4945755;27;98530;-63
2022/04/02 09:35:43;;;;;;;;;;;;;;;32.00;27.80;100151.00;4976814;27;98306;-63
2022/04/02 09:38:43;;;;;;;;;;;;;;;32.54;27.73;100162.13;4959705;28;98438;-63
2022/04/02 09:41:27;;;;;;;;;;;;;;;32.83;27.61;100153.25;4976283;28;99532;-63
2022/04/02 09:44:04;;;;;;;;;;;;;;;32.98;27.03;100157.38;4977431;27;102551;-63
2022/04/02 09:46:58;;;;;;;;;;;;;;;32.99;27.11;100145.78;4974235;28;98284;-63
2022/04/02 09:49:28;;;;;;;;;;;;;;;32.71;27.69;100146.28;4960205;28;98033;-63
2022/04/02 09:52:05;;;;;;;;;;;;;;;32.13;27.54;100145.63;4982147;27;104393;-63
2022/04/02 09:55:05;;;;;;;;;;;;;;;31.57;27.98;100150.81;4977305;27;99065;-63
2022/04/02 09:57:46;;;;;;;;;;;;;;;31.47;27.60;100133.78;4975981;27;98427;-63
2022/04/02 10:00:13;;;;;;;;;;;;;;;31.34;27.61;100132.78;4980384;27;97987;-63
2022/04/02 10:03:01;;;;;;;;;;;;;;;30.89;27.99;100134.84;4978598;27;128714;-63
2022/04/02 10:05:57;;;;;;;;;;;;;;;30.26;28.14;100132.22;4979739;28;98644;-63
2022/04/02 10:08:45;;;;;;;;;;;;;;;30.16;28.08;100125.56;4976791;28;127036;-63
2022/04/02 10:11:17;;;;;;;;;;;;;;;30.21;27.74;100124.34;4976962;27;109925;-63
2022/04/02 10:13:43;;;;;;;;;;;;;;;30.71;27.49;100126.69;4980618;27;98514;-63
2022/04/02 10:16:09;;;;;;;;;;;;;;;31.49;26.51;100122.25;4960226;28;127599;-63
2022/04/02 10:18:35;;;;;;;;;;;;;;;32.36;25.88;100120.56;4977376;28;127954;-63
2022/04/02 10:21:05;;;;;;;;;;;;;;;32.53;25.89;100124.28;4979785;27;98409;-63
2022/04/02 10:23:33;;;;;;;;;;;;;;;33.38;25.62;100126.66;4980705;27;99785;-63
2022/04/02 10:26:07;;;;;;;;;;;;;;;33.89;25.00;100118.75;4960204;28;125005;-64
2022/04/02 10:28:35;;;;;;;;;;;;;;;34.98;24.51;100124.81;4990507;28;98074;-63
2022/04/02 10:31:01;;;;;;;;;;;;;;;35.54;24.61;100123.63;4977142;28;98254;-63
2022/04/02 10:33:30;;;;;;;;;;;;;;;36.21;23.92;100126.31;4976145;28;128396;-63
2022/04/02 10:35:56;;;;;;;;;;;;;;;36.48;23.95;100117.44;4982725;27;98454;-63
2022/04/02 10:38:34;;;;;;;;;;;;;;;36.55;24.19;100125.59;4979693;28;98376;-64
2022/04/02 10:41:13;;;;;;;;;;;;;;;36.42;24.07;100124.03;4977342;27;98008;-63
2022/04/02 10:43:59;;;;;;;;;;;;;;;35.86;24.70;100111.41;4978213;28;98475;-63
2022/04/02 10:46:25;;;;;;;;;;;;;;;36.10;23.96;100114.69;4978183;27;98927;-64
2022/04/02 10:48:57;;;;;;;;;;;;;;;34.77;25.01;100112.16;4979464;27;98105;-63
2022/04/02 10:51:29;;;;;;;;;;;;;;;33.93;25.50;100114.66;4983167;27;98362;-63
2022/04/02 10:54:07;;;;;;;;;;;;;;;33.11;25.97;100105.28;4978636;27;98422;-63
2022/04/02 10:56:37;;;;;;;;;;;;;;;32.66;25.82;100111.31;4979380;28;98769;-63
2022/04/02 10:59:03;;;;;;;;;;;;;;;32.26;25.84;100108.38;4976127;27;105291;-63
2022/04/02 11:01:29;;;;;;;;;;;;;;;32.26;25.75;100111.16;4978502;28;98017;-64
2022/04/02 11:03:56;;;;;;;;;;;;;;;31.94;25.72;100111.69;4960249;28;111943;-63
2022/04/02 11:06:48;;;;;;;;;;;;;;;31.38;26.19;100105.69;4978834;27;99174;-63
2022/04/02 11:09:27;;;;;;;;;;;;;;;30.93;26.34;100108.59;4978475;27;97934;-63
2022/04/02 11:11:54;;;;;;;;;;;;;;;30.59;26.63;100104.97;4977375;28;98249;-63
2022/04/02 11:14:22;;;;;;;;;;;;;;;30.55;26.50;100107.78;4977082;27;98768;-64
2022/04/02 11:16:48;;;;;;;;;;;;;;;30.41;26.32;100100.34;4979222;27;98706;-63
2022/04/02 11:22:06;;;;;;;;;;;;;;;30.20;26.01;100120.78;4978021;28;97903;-63
2022/04/02 11:24:40;;;;;;;;;;;;;;;29.47;26.56;100107.69;4979221;27;98232;-63
2022/04/02 11:27:06;;;;;;;;;;;;;;;29.28;26.70;100110.97;4975968;28;99096;-63
2022/04/02 11:29:32;;;;;;;;;;;;;;;29.31;26.85;100105.38;4976628;27;128147;-63
2022/04/02 11:31:58;;;;;;;;;;;;;;;29.19;26.86;100105.84;4976406;28;111873;-63
2022/04/02 11:34:24;;;;;;;;;;;;;;;28.82;26.72;100111.88;4976090;27;128612;-63
2022/04/02 11:36:52;;;;;;;;;;;;;;;28.55;27.33;100109.56;4958223;28;124370;-63
2022/04/02 11:39:48;;;;;;;;;;;;;;;28.26;27.21;100099.66;4960071;28;98585;-63
2022/04/02 11:42:14;;;;;;;;;;;;;;;28.33;27.21;100105.19;4970620;27;97925;-63
2022/04/02 11:44:40;;;;;;;;;;;;;;;28.57;26.88;100106.38;4977196;27;127814;-63
2022/04/02 11:47:07;;;;;;;;;;;;;;;28.59;26.96;100102.03;4976698;28;127296;-63
2022/04/02 11:49:36;;;;;;;;;;;;;;;28.52;27.18;100099.25;4978963;27;97990;-63
2022/04/02 11:52:14;;;;;;;;;;;;;;;29.19;26.23;100099.50;4985769;27;97970;-63
2022/04/02 11:54:42;;;;;;;;;;;;;;;29.41;26.47;100101.00;4978721;27;99127;-63
2022/04/02 11:57:09;;;;;;;;;;;;;;;29.86;25.77;100103.94;4976143;28;98808;-63
2022/04/02 11:59:35;;;;;;;;;;;;;;;29.90;26.35;100101.91;4977762;27;98492;-63
2022/04/02 12:02:01;;;;;;;;;;;;;;;30.03;25.83;100105.03;4978309;27;98534;-63
2022/04/02 12:04:27;;;;;;;;;;;;;;;29.99;26.09;100107.81;4978017;27;108922;-63
2022/04/02 12:07:02;;;;;;;;;;;;;;;29.92;26.57;100099.53;4974932;28;127376;-63
2022/04/02 12:09:28;;;;;;;;;;;;;;;30.02;26.00;100098.66;4977150;27;121889;-63
2022/04/02 12:11:58;;;;;;;;;;;;;;;30.07;26.32;100095.44;4978811;28;97894;-63
2022/04/02 12:14:36;;;;;;;;;;;;;;;30.08;26.32;100099.03;4977390;27;98920;-63
2022/04/02 12:17:10;;;;;;;;;;;;;;;29.86;26.16;100097.59;4977640;28;98945;-63
2022/04/02 12:19:46;;;;;;;;;;;;;;;29.96;25.86;100105.84;4977875;27;98958;-63
2022/04/02 12:22:31;;;;;;;;;;;;;;;29.88;25.98;100095.22;4958866;28;111929;-63
2022/04/02 12:25:01;;;;;;;;;;;;;;;29.95;25.89;100095.16;4978069;27;98409;-63
2022/04/02 12:27:34;;;;;;;;;;;;;;;29.93;26.29;100092.78;4975340;28;99540;-63
2022/04/02 12:30:03;;;;;;;;;;;;;;;29.87;26.38;100088.03;4978140;27;98313;-63
2022/04/02 12:32:37;;;;;;;;;;;;;;;29.74;26.44;100090.53;4975221;28;107807;-63
2022/04/02 12:35:06;;;;;;;;;;;;;;;29.32;26.58;100084.00;4979803;27;98317;-63
2022/04/02 12:37:42;;;;;;;;;;;;;;;29.08;26.73;100088.44;4976134;27;98191;-63
2022/04/02 12:40:15;;;;;;;;;;;;;;;28.62;26.93;100087.38;4977373;27;98027;-63
2022/04/02 12:42:42;;;;;;;;;;;;;;;28.43;26.50;100095.31;4977411;27;98028;-63
2022/04/02 12:45:31;;;;;;;;;;;;;;;28.19;26.81;100094.91;4977922;27;98653;-63
2022/04/02 12:48:18;;;;;;;;;;;;;;;28.01;26.62;100088.56;4976863;27;98931;-63
2022/04/02 12:50:58;;;;;;;;;;;;;;;27.97;26.56;100087.75;4977381;28;98596;-65
2022/04/02 12:53:28;;;;;;;;;;;;;;;27.95;26.55;100081.84;4974490;28;98407;-63